Silver Wind — C6FG2 — position and weather

sailwx.info

Track history (hours):
 
Tides and Currents Weather Stations Pressure Air Temp Water Temp Dewpoint Dewpoint Depression Visibility Wind Speed Wind Dir Waves Ship Positions

Silver Wind

Operator: V Ships Leisure

Last reported at 2017-Mar-23 23:31 UTC. Time now 2017-Mar-25 19:41 UTC.
Position N 18°35' W 064°57'.

Length 156 m; draft 5.7 m.

Type: Passenger vessel. MMSI: 308814000.

Date/timePositionNaut miles runAvg speedWind from/ knotsBaromVisibWave heightAir tempDewpointWater temp
2017-Mar-23 23:31N 18°35' W 064°57'1716.3
2017-Mar-23 22:29N 18°33' W 064°40'1112.1
2017-Mar-23 21:33N 18°25' W 064°31'5 0.5
2017-Mar-23 11:19N 18°25' W 064°36'810.1
2017-Mar-23 10:33N 18°24' W 064°28'13613.6
2017-Mar-23 00:33N 17°22' W 062°22'1413.8
2017-Mar-22 23:33N 17°16' W 062°09'1413.6
2017-Mar-22 22:34N 17°09' W 061°56'5 5.2
2017-Mar-22 21:32N 17°07' W 061°51'0 0.0
2017-Mar-22 20:32N 17°07' W 061°51'0 0.0
2017-Mar-22 19:32N 17°07' W 061°51'0 0.0
2017-Mar-22 18:32N 17°07' W 061°51'0 0.0
2017-Mar-22 17:32N 17°07' W 061°51'0 0.0
2017-Mar-22 16:32N 17°07' W 061°51'0 0.0
2017-Mar-22 15:32N 17°07' W 061°51'0 0.0
2017-Mar-22 14:32N 17°07' W 061°51'0 0.0
2017-Mar-22 13:32N 17°07' W 061°51'0 0.0
2017-Mar-22 12:32N 17°07' W 061°51'0 0.1
2017-Mar-22 11:33N 17°07' W 061°51'7 7.1
2017-Mar-22 10:33N 17°07' W 061°58'1514.5
2017-Mar-22 09:33N 16°53' W 061°59'1515.0
2017-Mar-22 08:33N 16°38' W 061°59'1515.0
2017-Mar-22 07:33N 16°23' W 061°59'6114.7
2017-Mar-22 03:22N 15°24' W 061°42'  
2017-Mar-19 10:09N 16°19' W 062°12'1016.3
2017-Mar-19 09:33N 16°27' W 062°18'1616.0
2017-Mar-19 08:33N 16°40' W 062°28'163 5.8
2017-Mar-18 04:33N 18°11' W 064°50'7114.2
2017-Mar-17 23:33N 18°32' W 066°01'7 6.7
2017-Mar-17 22:33N 18°28' W 066°07'0 0.0
2017-Mar-17 21:30N 18°28' W 066°07'0 0.0
2017-Mar-17 20:30N 18°28' W 066°07'0 0.0
2017-Mar-17 19:33N 18°28' W 066°07'0 0.0
2017-Mar-17 18:30N 18°28' W 066°07'0 0.0
2017-Mar-17 17:30N 18°28' W 066°07'0 0.0
2017-Mar-17 16:24N 18°28' W 066°07'0 0.0
2017-Mar-17 14:24N 18°28' W 066°07'0 0.0
2017-Mar-17 12:30N 18°28' W 066°07'0 0.1
2017-Mar-17 10:33N 18°28' W 066°07'5 5.3
2017-Mar-17 09:33N 18°32' W 066°03'6410.0
2017-Mar-17 03:08N 18°26' W 064°56'6 9.9
2017-Mar-17 02:33N 18°25' W 064°50'5 4.6
2017-Mar-17 01:31N 18°26' W 064°45'0 0.0
2017-Mar-17 00:31N 18°26' W 064°45'0 0.0
2017-Mar-16 23:31N 18°26' W 064°45'0 0.0
2017-Mar-16 22:25N 18°26' W 064°45'0 0.1
2017-Mar-16 21:25N 18°26' W 064°45'0 0.0
2017-Mar-16 20:25N 18°26' W 064°45'0 0.1
2017-Mar-16 19:31N 18°26' W 064°45'0 0.0
2017-Mar-16 18:31N 18°26' W 064°45'0 0.0
2017-Mar-16 17:31N 18°26' W 064°45'0 0.0
2017-Mar-16 16:19N 18°26' W 064°45'0 0.0
2017-Mar-16 15:31N 18°26' W 064°45'0 0.0
2017-Mar-16 14:31N 18°26' W 064°45'0 0.0
2017-Mar-16 13:25N 18°26' W 064°45'0 0.0
2017-Mar-16 12:25N 18°26' W 064°45'0 0.1
2017-Mar-16 11:31N 18°26' W 064°45'7 6.9
2017-Mar-16 10:33N 18°28' W 064°38'1716.6
2017-Mar-16 09:33N 18°33' W 064°21'  
Track history (hours):
 
Tides and Currents Weather Stations Pressure Air Temp Water Temp Dewpoint Dewpoint Depression Visibility Wind Speed Wind Dir Waves Ship Positions

Silver Wind

Operator: V Ships Leisure

Last reported at 2017-Mar-23 23:31 UTC. Time now 2017-Mar-25 19:41 UTC.
Position N 18°35' W 064°57'.

Length 156 m; draft 5.7 m.

Type: Passenger vessel. MMSI: 308814000.

Date/timePositionNaut miles runAvg speedWind from/ knotsBaromVisibWave heightAir tempDewpointWater temp
2017-Mar-23 23:31N 18°35' W 064°57'1716.3
2017-Mar-23 22:29N 18°33' W 064°40'1112.1
2017-Mar-23 21:33N 18°25' W 064°31'5 0.5
2017-Mar-23 11:19N 18°25' W 064°36'810.1
2017-Mar-23 10:33N 18°24' W 064°28'13613.6
2017-Mar-23 00:33N 17°22' W 062°22'1413.8
2017-Mar-22 23:33N 17°16' W 062°09'1413.6
2017-Mar-22 22:34N 17°09' W 061°56'5 5.2
2017-Mar-22 21:32N 17°07' W 061°51'0 0.0
2017-Mar-22 20:32N 17°07' W 061°51'0 0.0
2017-Mar-22 19:32N 17°07' W 061°51'0 0.0
2017-Mar-22 18:32N 17°07' W 061°51'0 0.0
2017-Mar-22 17:32N 17°07' W 061°51'0 0.0
2017-Mar-22 16:32N 17°07' W 061°51'0 0.0
2017-Mar-22 15:32N 17°07' W 061°51'0 0.0
2017-Mar-22 14:32N 17°07' W 061°51'0 0.0
2017-Mar-22 13:32N 17°07' W 061°51'0 0.0
2017-Mar-22 12:32N 17°07' W 061°51'0 0.1
2017-Mar-22 11:33N 17°07' W 061°51'7 7.1
2017-Mar-22 10:33N 17°07' W 061°58'1514.5
2017-Mar-22 09:33N 16°53' W 061°59'1515.0
2017-Mar-22 08:33N 16°38' W 061°59'1515.0
2017-Mar-22 07:33N 16°23' W 061°59'6114.7
2017-Mar-22 03:22N 15°24' W 061°42'  
2017-Mar-19 10:09N 16°19' W 062°12'1016.3
2017-Mar-19 09:33N 16°27' W 062°18'1616.0
2017-Mar-19 08:33N 16°40' W 062°28'163 5.8
2017-Mar-18 04:33N 18°11' W 064°50'7114.2
2017-Mar-17 23:33N 18°32' W 066°01'7 6.7
2017-Mar-17 22:33N 18°28' W 066°07'0 0.0
2017-Mar-17 21:30N 18°28' W 066°07'0 0.0
2017-Mar-17 20:30N 18°28' W 066°07'0 0.0
2017-Mar-17 19:33N 18°28' W 066°07'0 0.0
2017-Mar-17 18:30N 18°28' W 066°07'0 0.0
2017-Mar-17 17:30N 18°28' W 066°07'0 0.0
2017-Mar-17 16:24N 18°28' W 066°07'0 0.0
2017-Mar-17 14:24N 18°28' W 066°07'0 0.0
2017-Mar-17 12:30N 18°28' W 066°07'0 0.1
2017-Mar-17 10:33N 18°28' W 066°07'5 5.3
2017-Mar-17 09:33N 18°32' W 066°03'6410.0
2017-Mar-17 03:08N 18°26' W 064°56'6 9.9
2017-Mar-17 02:33N 18°25' W 064°50'5 4.6
2017-Mar-17 01:31N 18°26' W 064°45'0 0.0
2017-Mar-17 00:31N 18°26' W 064°45'0 0.0
2017-Mar-16 23:31N 18°26' W 064°45'0 0.0
2017-Mar-16 22:25N 18°26' W 064°45'0 0.1
2017-Mar-16 21:25N 18°26' W 064°45'0 0.0
2017-Mar-16 20:25N 18°26' W 064°45'0 0.1
2017-Mar-16 19:31N 18°26' W 064°45'0 0.0
2017-Mar-16 18:31N 18°26' W 064°45'0 0.0
2017-Mar-16 17:31N 18°26' W 064°45'0 0.0
2017-Mar-16 16:19N 18°26' W 064°45'0 0.0
2017-Mar-16 15:31N 18°26' W 064°45'0 0.0
2017-Mar-16 14:31N 18°26' W 064°45'0 0.0
2017-Mar-16 13:25N 18°26' W 064°45'0 0.0
2017-Mar-16 12:25N 18°26' W 064°45'0 0.1
2017-Mar-16 11:31N 18°26' W 064°45'7 6.9
2017-Mar-16 10:33N 18°28' W 064°38'1716.6
2017-Mar-16 09:33N 18°33' W 064°21'  

Dump ship's entire track history